Time;durP1;ratioP1;P1;durP2;ratioP2;P2;SDS_P1;SDS_P2;PMS_P1;PMS_P2;Temp;Humidity;BMP_temperature;BMP_pressure;BME280_temperature;BME280_humidity;BME280_pressure;Samples;Min_cycle;Max_cycle;Signal;HPM_P1;HPM_P2
2022/06/02 00:03:46;;;;;;;14.18;8.20;;;;;;;15.32;97.84;97777.56;10292654;28;20045;-61
2022/06/02 00:09:32;;;;;;;16.73;9.32;;;;;;;15.38;97.79;97795.75;10293344;28;20064;-61
2022/06/02 00:14:44;;;;;;;15.35;9.25;;;;;;;15.31;97.53;97794.16;10292297;28;20076;-62
2022/06/02 00:20:08;;;;;;;15.63;10.30;;;;;;;15.34;97.38;97801.91;10292280;28;20081;-61
2022/06/02 00:25:38;;;;;;;18.50;10.60;;;;;;;15.29;97.93;97796.78;10287209;28;20064;-62
2022/06/02 00:30:54;;;;;;;18.23;9.88;;;;;;;15.10;98.02;97772.75;10291647;28;20064;-61
2022/06/02 00:36:00;;;;;;;14.57;9.60;;;;;;;15.11;98.19;97781.44;10292786;28;20070;-62
2022/06/02 00:41:31;;;;;;;15.20;9.73;;;;;;;15.19;98.41;97790.88;10291457;28;20487;-62
2022/06/02 00:46:50;;;;;;;14.68;9.75;;;;;;;15.10;98.61;97795.41;10292018;28;20080;-61
2022/06/02 00:52:18;;;;;;;15.88;9.88;;;;;;;15.10;98.70;97795.41;10291248;28;20093;-62
2022/06/02 00:57:32;;;;;;;14.27;9.75;;;;;;;15.07;98.72;97793.72;10292034;28;20081;-62
2022/06/02 01:02:42;;;;;;;14.60;9.32;;;;;;;14.91;98.63;97771.38;10291710;28;20073;-62
2022/06/02 01:08:05;;;;;;;14.77;10.10;;;;;;;15.00;98.42;97792.09;10290357;28;20072;-62
2022/06/02 01:13:04;;;;;;;16.58;9.93;;;;;;;15.00;98.60;97790.34;10290132;28;20070;-61
2022/06/02 01:18:03;;;;;;;;;;;;;;;14.95;99.13;97788.72;10291905;28;20046;-62
2022/06/02 01:23:27;;;;;;;14.52;9.75;;;;;;;14.96;99.26;97777.38;10290258;28;19921;-62
2022/06/02 01:28:46;;;;;;;19.27;10.93;;;;;;;14.96;99.20;97779.97;10291708;28;20057;-62
2022/06/02 01:34:08;;;;;;;18.30;10.32;;;;;;;14.91;99.05;97782.69;10294525;28;20069;-62
2022/06/02 01:39:25;;;;;;;19.27;11.32;;;;;;;14.79;99.75;97780.28;10300704;28;20069;-62
2022/06/02 01:44:33;;;;;;;20.73;10.85;;;;;;;14.79;99.62;97778.53;10297205;28;20060;-62
2022/06/02 01:49:47;;;;;;;17.85;11.18;;;;;;;14.78;99.53;97779.44;10298033;28;20615;-62
2022/06/02 01:55:18;;;;;;;21.33;12.27;;;;;;;14.37;100.00;97730.47;10295863;28;20062;-62
2022/06/02 02:00:23;;;;;;;24.15;11.98;;;;;;;14.63;100.00;97771.81;10295482;28;20062;-62
2022/06/02 02:05:35;;;;;;;17.42;10.65;;;;;;;14.40;100.00;97761.75;10297732;28;20806;-61
2022/06/02 02:10:56;;;;;;;17.20;9.88;;;;;;;14.39;100.00;97783.53;10296192;28;20084;-62
2022/06/02 02:16:09;;;;;;;16.27;10.32;;;;;;;14.34;100.00;97786.22;10297477;28;20061;-62
2022/06/02 02:21:22;;;;;;;16.55;10.23;;;;;;;14.35;100.00;97777.47;10293520;28;20077;-62
2022/06/02 02:26:36;;;;;;;15.38;10.50;;;;;;;14.34;100.00;97778.38;10296561;28;20064;-62
2022/06/02 02:31:45;;;;;;;17.02;11.18;;;;;;;14.33;100.00;97783.63;10295382;28;20057;-62
2022/06/02 02:36:51;;;;;;;;;;;;;;;14.30;100.00;97773.22;10296697;28;20480;-62
2022/06/02 02:41:55;;;;;;;16.73;10.50;;;;;;;14.28;99.88;97769.78;10295096;28;19967;-62
2022/06/02 02:47:10;;;;;;;20.70;10.80;;;;;;;14.25;100.00;97773.31;10295388;28;20493;-62
2022/06/02 02:52:12;;;;;;;20.25;11.20;;;;;;;14.22;100.00;97773.34;10295269;28;20088;-62
2022/06/02 02:57:31;;;;;;;17.17;9.77;;;;;;;14.17;100.00;97785.59;10294402;28;20066;-62
2022/06/02 03:02:41;;;;;;;16.75;11.02;;;;;;;14.03;100.00;97754.50;10293833;28;20065;-62
2022/06/02 03:07:40;;;;;;;18.33;11.13;;;;;;;14.04;100.00;97765.81;10295659;28;20793;-62
2022/06/02 03:12:49;;;;;;;;;;;;;;;13.97;100.00;97786.75;10297324;28;20084;-62
2022/06/02 03:18:16;;;;;;;20.30;11.60;;;;;;;14.01;100.00;97782.38;10297762;28;19957;-62
2022/06/02 03:23:33;;;;;;;18.88;10.57;;;;;;;14.03;100.00;97777.09;10296947;28;20520;-62
2022/06/02 03:28:55;;;;;;;19.65;11.65;;;;;;;14.08;100.00;97783.16;10296507;28;20046;-62
2022/06/02 03:34:24;;;;;;;21.80;13.02;;;;;;;13.99;100.00;97784.97;10296756;28;20076;-62
2022/06/02 03:39:49;;;;;;;23.10;11.70;;;;;;;14.12;100.00;97800.47;10296356;28;20552;-62
2022/06/02 03:44:53;;;;;;;21.40;12.25;;;;;;;14.15;100.00;97787.38;10296285;28;20061;-62
2022/06/02 03:49:52;;;;;;;22.45;12.02;;;;;;;14.27;100.00;97796.78;10296156;28;20053;-62
2022/06/02 03:55:26;;;;;;;23.05;13.15;;;;;;;14.26;100.00;97788.06;10296094;28;20037;-62
2022/06/02 04:00:29;;;;;;;21.02;12.25;;;;;;;14.25;100.00;97770.69;10302244;28;20087;-62
2022/06/02 04:05:30;;;;;;;23.48;13.00;;;;;;;14.51;100.00;97792.91;10265646;28;20125;-62
2022/06/02 04:10:41;;;;;;;23.52;13.95;;;;;;;14.63;100.00;97787.47;10287640;28;20073;-62
2022/06/02 04:15:51;;;;;;;20.35;13.25;;;;;;;14.72;100.00;97792.59;10286328;28;20058;-62
2022/06/02 04:21:15;;;;;;;28.98;16.23;;;;;;;14.88;100.00;97787.09;10300867;28;20486;-62
2022/06/02 04:26:34;;;;;;;24.98;14.18;;;;;;;14.94;100.00;97786.97;10325789;28;20053;-62
2022/06/02 04:32:03;;;;;;;20.80;13.60;;;;;;;15.09;100.00;97786.72;10325670;28;20057;-62
2022/06/02 04:37:24;;;;;;;20.67;13.80;;;;;;;15.26;100.00;97794.22;10326336;28;20527;-62
2022/06/02 04:42:33;;;;;;;21.85;14.18;;;;;;;15.47;100.00;97790.34;10324722;28;20108;-62
2022/06/02 04:48:09;;;;;;;23.63;14.90;;;;;;;15.70;100.00;97776.78;10324272;28;20113;-62
2022/06/02 04:53:46;;;;;;;27.05;13.85;;;;;;;15.93;100.00;97785.91;10338415;28;20218;-62
2022/06/02 04:58:56;;;;;;;20.45;13.63;;;;;;;15.99;100.00;97772.69;10326355;28;20061;-62
2022/06/02 05:04:10;;;;;;;18.70;11.60;;;;;;;16.30;100.00;97784.22;10325427;28;20112;-62
2022/06/02 05:09:30;;;;;;;14.45;10.27;;;;;;;16.39;99.20;97796.19;10326959;28;20110;-62
2022/06/02 05:14:35;;;;;;;14.25;9.80;;;;;;;16.14;99.63;97789.81;10334138;28;20129;-62
2022/06/02 05:19:55;;;;;;;27.80;13.85;;;;;;;16.21;99.66;97786.19;10330043;28;20081;-62
2022/06/02 05:25:12;;;;;;;14.20;9.38;;;;;;;16.43;98.72;97797.84;10332955;28;20133;-62
2022/06/02 05:30:26;;;;;;;20.17;9.32;;;;;;;16.60;98.00;97801.81;10337615;28;20064;-62
2022/06/02 05:35:25;;;;;;;12.10;8.15;;;;;;;16.89;97.75;97812.47;10336228;28;20104;-62
2022/06/02 05:40:30;;;;;;;12.13;8.18;;;;;;;17.09;97.40;97800.59;10338022;28;20034;-62
2022/06/02 05:45:47;;;;;;;11.48;8.38;;;;;;;17.32;95.81;97798.22;10337154;28;20493;-62
2022/06/02 05:51:12;;;;;;;11.50;8.60;;;;;;;17.55;94.82;97796.75;10338467;28;20075;-62
2022/06/02 05:56:20;;;;;;;12.45;8.48;;;;;;;17.81;93.92;97792.53;10338251;28;20460;-62
2022/06/02 06:01:31;;;;;;;16.50;8.88;;;;;;;18.08;93.20;97789.09;10336889;28;20064;-62
2022/06/02 06:06:50;;;;;;;17.38;9.18;;;;;;;18.34;91.78;97788.28;10336915;28;20064;-62
2022/06/02 06:11:58;;;;;;;12.60;8.20;;;;;;;18.53;90.74;97791.16;10333007;28;20112;-62
2022/06/02 06:17:13;;;;;;;12.10;7.60;;;;;;;18.77;89.82;97780.78;10336086;28;20705;-63
2022/06/02 06:22:21;;;;;;;10.73;7.63;;;;;;;18.95;87.39;97788.06;10334144;28;20465;-62
2022/06/02 06:27:20;;;;;;;13.85;7.53;;;;;;;18.91;86.18;97778.53;10335595;28;20057;-62
2022/06/02 06:33:01;;;;;;;12.05;6.63;;;;;;;19.18;85.52;97786.38;10334956;28;20026;-62
2022/06/02 06:38:19;;;;;;;12.27;6.40;;;;;;;19.36;84.16;97775.19;10324945;28;20076;-62
2022/06/02 06:43:39;;;;;;;7.75;6.18;;;;;;;19.65;83.63;97771.53;10332185;28;20045;-63
2022/06/02 06:48:45;;;;;;;10.20;5.45;;;;;;;19.79;81.41;97752.59;10332298;28;20061;-62
2022/06/02 06:53:53;;;;;;;9.80;6.07;;;;;;;20.19;81.15;97764.22;10336092;28;20634;-62
2022/06/02 06:59:10;;;;;;;14.02;6.20;;;;;;;20.54;80.10;97767.25;10334302;28;20075;-63
2022/06/02 07:04:23;;;;;;;9.27;5.00;;;;;;;20.71;75.26;97759.47;10335736;28;20057;-62
2022/06/02 07:09:47;;;;;;;7.72;4.93;;;;;;;20.93;75.81;97762.06;10297367;28;20073;-62
2022/06/02 07:15:17;;;;;;;8.05;4.75;;;;;;;21.17;74.27;97761.91;10294617;28;20073;-62
2022/06/02 07:20:25;;;;;;;6.28;4.70;;;;;;;21.36;71.53;97766.41;10335097;28;20553;-63
2022/06/02 07:25:30;;;;;;;9.73;4.57;;;;;;;21.57;71.14;97776.06;10332311;28;20099;-62
2022/06/02 07:31:02;;;;;;;7.38;4.60;;;;;;;21.80;70.42;97776.75;10331679;28;20064;-62
2022/06/02 07:36:16;;;;;;;7.93;4.88;;;;;;;22.14;69.98;97782.22;10320361;28;20483;-63
2022/06/02 07:41:21;;;;;;;7.25;4.70;;;;;;;22.44;69.77;97789.63;10331272;28;20120;-62
2022/06/02 07:46:58;;;;;;;7.53;4.72;;;;;;;22.60;69.23;97771.22;10331980;28;20738;-62
2022/06/02 07:52:02;;;;;;;5.95;4.20;;;;;;;22.62;66.89;97787.84;10332447;28;20073;-62
2022/06/02 07:57:27;;;;;;;7.88;4.28;;;;;;;22.85;65.54;97785.91;10332770;28;20449;-62
2022/06/02 08:02:41;;;;;;;7.00;4.32;;;;;;;23.12;65.90;97783.66;10331302;28;20069;-62
2022/06/02 08:07:49;;;;;;;7.72;4.45;;;;;;;23.24;65.37;97769.78;10333520;28;20057;-63
2022/06/02 08:13:00;;;;;;;6.80;4.50;;;;;;;23.65;64.86;97774.69;10333362;28;20073;-64
2022/06/02 08:18:25;;;;;;;8.98;4.47;;;;;;;23.76;60.37;97779.44;10331300;28;20088;-63
2022/06/02 08:23:24;;;;;;;6.05;4.10;;;;;;;23.87;60.37;97773.56;10333549;28;20519;-62
2022/06/02 08:29:00;;;;;;;8.07;4.72;;;;;;;24.14;61.31;97771.16;10335724;28;20030;-63
2022/06/02 08:34:14;;;;;;;8.93;4.78;;;;;;;24.29;61.82;97751.78;10329944;28;20113;-62
2022/06/02 08:39:46;;;;;;;10.20;4.57;;;;;;;24.55;61.58;97768.00;10329814;28;20061;-63
2022/06/02 08:45:14;;;;;;;7.10;4.38;;;;;;;24.41;60.39;97768.78;10339186;28;21005;-63
2022/06/02 08:50:20;;;;;;;7.40;4.33;;;;;;;24.62;60.89;97764.91;10340416;28;20067;-62
2022/06/02 08:56:01;;;;;;;8.07;4.72;;;;;;;24.83;60.71;97765.44;10333514;28;20587;-63
2022/06/02 09:01:31;;;;;;;11.25;4.95;;;;;;;25.18;58.01;97764.34;10320663;28;20072;-62
2022/06/02 09:06:54;;;;;;;6.13;4.00;;;;;;;25.15;55.73;97761.84;10341716;28;20068;-63
2022/06/02 09:12:36;;;;;;;5.13;3.95;;;;;;;25.43;53.13;97766.34;10337508;28;20061;-63
2022/06/02 09:17:46;;;;;;;6.50;3.80;;;;;;;25.55;53.96;97765.66;10339042;28;20087;-63
2022/06/02 09:23:02;;;;;;;6.07;4.32;;;;;;;25.80;55.91;97772.06;10334559;28;20072;-62
2022/06/02 09:28:21;;;;;;;6.75;4.43;;;;;;;25.96;55.36;97762.19;10333218;28;20075;-63
2022/06/02 09:33:34;;;;;;;;;;;;;;;26.03;53.22;97768.81;10338074;28;20143;-63
2022/06/02 09:38:36;;;;;;;8.60;4.38;;;;;;;26.08;50.51;97772.03;10336034;28;19956;-63
2022/06/02 09:44:03;;;;;;;7.72;3.50;;;;;;;26.13;49.04;97763.75;10368055;28;20516;-63
2022/06/02 09:49:24;;;;;;;6.85;3.95;;;;;;;26.13;49.80;97766.41;10336553;28;20587;-63
2022/06/02 09:54:35;;;;;;;6.00;4.13;;;;;;;26.34;50.43;97756.22;10337129;28;20508;-63
2022/06/02 09:59:34;;;;;;;6.10;4.10;;;;;;;26.44;50.54;97759.13;10336647;28;20071;-62
2022/06/02 10:04:39;;;;;;;5.22;3.40;;;;;;;26.51;50.00;97717.88;10337742;28;20026;-63
2022/06/02 10:10:00;;;;;;;9.68;4.13;;;;;;;26.84;47.97;97738.75;10337148;28;20083;-63
2022/06/02 10:15:21;;;;;;;7.03;3.85;;;;;;;26.76;47.86;97743.69;10334745;28;20065;-63
2022/06/02 10:20:41;;;;;;;4.97;3.40;;;;;;;27.08;45.86;97743.38;10334895;28;20512;-63
2022/06/02 10:25:52;;;;;;;8.32;3.40;;;;;;;27.04;45.64;97744.53;10337409;28;20064;-63
2022/06/02 10:31:09;;;;;;;5.80;3.40;;;;;;;27.25;45.40;97742.22;10329955;28;20065;-63
2022/06/02 10:36:27;;;;;;;4.40;3.20;;;;;;;27.55;44.94;97736.59;10318533;28;20516;-63
2022/06/02 10:41:46;;;;;;;6.35;3.10;;;;;;;27.68;43.51;97734.78;10328054;28;20065;-63
2022/06/02 10:47:04;;;;;;;6.60;3.60;;;;;;;27.74;42.98;97728.97;10318159;28;20076;-63
2022/06/02 10:52:27;;;;;;;7.90;3.28;;;;;;;27.76;41.97;97721.72;10330627;28;20061;-63
2022/06/02 10:57:35;;;;;;;5.50;2.80;;;;;;;27.91;41.10;97724.25;10333253;28;20460;-63
2022/06/02 11:02:46;;;;;;;4.82;3.20;;;;;;;27.69;41.70;97720.47;10335790;28;20065;-63
2022/06/02 11:08:20;;;;;;;8.02;3.42;;;;;;;27.70;41.31;97700.81;10334721;28;20073;-63
2022/06/02 11:13:43;;;;;;;5.95;2.85;;;;;;;27.92;40.48;97715.31;10338731;28;20065;-62
2022/06/02 11:18:57;;;;;;;8.20;3.08;;;;;;;28.12;39.83;97709.38;10337844;28;20139;-62
2022/06/02 11:24:30;;;;;;;7.65;3.20;;;;;;;28.29;38.03;97704.63;10338428;28;20057;-62
2022/06/02 11:29:41;;;;;;;8.00;3.28;;;;;;;28.19;38.41;97713.28;10336500;28;20535;-63
2022/06/02 11:35:01;;;;;;;5.13;2.75;;;;;;;28.20;39.38;97704.34;10338287;28;20061;-63
2022/06/02 11:40:18;;;;;;;6.80;3.15;;;;;;;28.25;38.15;97691.50;10336827;28;20077;-63
2022/06/02 11:45:30;;;;;;;5.93;3.63;;;;;;;28.39;36.81;97682.47;10337743;28;20053;-63
2022/06/02 11:50:35;;;;;;;6.03;2.97;;;;;;;28.73;36.14;97689.78;10335322;28;20073;-63
2022/06/02 11:56:21;;;;;;;5.80;2.85;;;;;;;28.99;35.49;97675.28;10336019;28;20065;-63
2022/06/02 12:01:44;;;;;;;9.35;3.65;;;;;;;28.76;38.31;97682.41;10320681;28;20076;-63
2022/06/02 12:06:52;;;;;;;6.40;3.45;;;;;;;28.61;37.82;97681.69;10335226;28;20092;-63
2022/06/02 12:12:15;;;;;;;7.63;3.15;;;;;;;28.58;38.10;97679.28;10333737;28;20069;-63
2022/06/02 12:17:33;;;;;;;6.28;3.05;;;;;;;28.67;39.37;97667.94;10330887;28;20073;-63
2022/06/02 12:23:20;;;;;;;7.32;3.70;;;;;;;28.85;38.54;97679.03;10333309;28;20072;-63
2022/06/02 12:29:01;;;;;;;8.05;3.55;;;;;;;28.91;37.95;97669.69;10330662;28;20089;-63
2022/06/02 12:34:25;;;;;;;5.57;2.90;;;;;;;28.90;36.80;97676.00;10332046;28;20077;-63
2022/06/02 12:39:42;;;;;;;9.52;3.30;;;;;;;28.83;37.38;97674.78;10332314;28;20152;-63
2022/06/02 12:45:01;;;;;;;4.55;3.00;;;;;;;29.00;36.84;97678.81;10333181;28;20456;-63
2022/06/02 12:50:25;;;;;;;5.95;3.40;;;;;;;28.94;34.45;97665.91;10331705;28;20075;-63
2022/06/02 12:55:49;;;;;;;6.50;2.97;;;;;;;29.09;35.63;97668.25;10332238;28;21562;-63
2022/06/02 13:00:54;;;;;;;7.75;2.90;;;;;;;29.11;35.91;97672.63;10327626;28;20084;-63
2022/06/02 13:06:07;;;;;;;6.90;3.40;;;;;;;29.19;34.56;97671.06;10326017;28;20477;-63
2022/06/02 13:11:38;;;;;;;9.38;3.20;;;;;;;29.18;36.30;97657.81;10319568;28;20108;-63
2022/06/02 13:17:04;;;;;;;8.63;3.10;;;;;;;29.21;34.62;97662.94;10300595;28;20046;-63
2022/06/02 13:22:18;;;;;;;8.95;3.78;;;;;;;29.27;34.47;97651.75;10325528;28;20146;-63
2022/06/02 13:27:35;;;;;;;6.50;3.05;;;;;;;29.32;34.08;97651.41;10306730;28;20136;-63
2022/06/02 13:33:12;;;;;;;6.13;2.85;;;;;;;29.38;33.07;97658.94;10291963;28;20126;-63
2022/06/02 13:38:32;;;;;;;4.40;2.53;;;;;;;29.32;33.63;97664.75;10306154;28;20108;-63
2022/06/02 13:44:03;;;;;;;7.88;3.65;;;;;;;29.16;35.45;97654.44;10330544;28;20382;-63
2022/06/02 13:49:20;;;;;;;5.75;2.83;;;;;;;29.25;35.26;97662.56;10330990;28;20116;-63
2022/06/02 14:00:29;;;;;;;7.35;3.60;;;;;;;29.57;33.63;97661.84;10331063;28;20140;-63
2022/06/02 14:05:49;;;;;;;8.77;3.28;;;;;;;29.49;33.44;97654.44;10330897;28;20133;-63
2022/06/02 14:11:28;;;;;;;6.10;3.13;;;;;;;29.53;32.79;97656.88;10329005;28;20128;-63
2022/06/02 14:17:06;;;;;;;8.73;3.17;;;;;;;29.47;34.21;97663.56;10319057;28;20181;-63
2022/06/02 14:22:34;;;;;;;8.48;3.60;;;;;;;29.02;36.46;97653.69;10289182;28;20796;-62
2022/06/02 14:27:33;;;;;;;7.10;3.05;;;;;;;29.07;36.80;97654.16;10301531;28;20125;-63
2022/06/02 14:32:38;;;;;;;6.97;3.22;;;;;;;29.19;37.04;97657.69;10329418;28;20044;-63
2022/06/02 14:38:01;;;;;;;6.00;3.13;;;;;;;29.06;36.10;97639.13;10328143;28;20132;-62
2022/06/02 14:43:09;;;;;;;5.07;3.10;;;;;;;28.81;36.25;97639.31;10327368;28;20144;-63
2022/06/02 14:48:31;;;;;;;7.75;2.50;;;;;;;28.92;37.33;97638.47;10324188;28;20132;-62
2022/06/02 14:53:42;;;;;;;4.13;2.67;;;;;;;28.82;36.53;97635.66;10328840;28;20464;-63
2022/06/02 14:59:22;;;;;;;7.72;3.08;;;;;;;28.75;38.20;97640.63;10326058;28;20120;-63
2022/06/02 15:04:56;;;;;;;6.85;3.38;;;;;;;28.62;38.13;97632.69;10314106;28;20108;-62
2022/06/02 15:10:20;;;;;;;7.85;3.35;;;;;;;28.42;38.26;97628.00;10319955;28;20112;-62
2022/06/02 15:15:28;;;;;;;9.60;3.75;;;;;;;28.54;38.44;97640.41;10307787;28;20112;-62
2022/06/02 15:20:27;;;;;;;6.68;3.08;;;;;;;28.46;38.61;97657.03;10323707;28;20128;-62
2022/06/02 15:25:44;;;;;;;9.85;3.25;;;;;;;28.23;38.94;97649.91;10324307;28;20075;-62
2022/06/02 15:31:16;;;;;;;7.13;3.33;;;;;;;27.96;39.24;97658.09;10317678;28;20647;-62
2022/06/02 15:36:39;;;;;;;8.40;3.20;;;;;;;27.91;37.74;97657.56;10302575;28;20476;-62
2022/06/02 15:42:03;;;;;;;5.57;3.28;;;;;;;27.89;38.82;97656.84;10325763;28;20057;-62
2022/06/02 15:47:27;;;;;;;8.48;3.30;;;;;;;27.82;39.73;97661.75;10320908;28;20065;-62
2022/06/02 15:52:54;;;;;;;5.40;3.90;;;;;;;27.72;40.41;97660.72;10328136;28;20528;-62
2022/06/02 15:58:28;;;;;;;9.30;3.60;;;;;;;27.86;41.65;97657.91;10329832;28;20053;-63
2022/06/02 16:03:48;;;;;;;9.23;4.90;;;;;;;28.05;42.28;97663.59;10306755;28;20064;-62
2022/06/02 16:14:40;;;;;;;10.15;3.78;;;;;;;27.57;43.26;97671.53;10330938;28;20073;-62
2022/06/02 16:20:01;;;;;;;8.25;3.80;;;;;;;27.54;44.79;97678.88;10326443;28;20084;-62
2022/06/02 16:25:12;;;;;;;6.78;3.67;;;;;;;27.66;45.63;97682.50;10341794;28;20590;-62
2022/06/02 16:30:33;;;;;;;8.15;4.13;;;;;;;27.69;45.16;97669.81;10329448;28;20045;-62
2022/06/02 16:35:42;;;;;;;8.27;4.18;;;;;;;27.74;44.49;97674.81;10325148;28;20678;-62
2022/06/02 16:41:06;;;;;;;6.82;4.43;;;;;;;27.61;44.57;97675.69;10327491;28;20069;-62
2022/06/02 16:46:26;;;;;;;7.82;4.03;;;;;;;27.53;44.63;97683.38;10343507;28;20870;-62
2022/06/02 16:51:53;;;;;;;7.90;4.15;;;;;;;27.44;45.41;97689.31;10324919;28;20099;-62
2022/06/02 16:57:07;;;;;;;10.13;4.53;;;;;;;27.34;46.09;97705.13;10327492;28;20117;-62
2022/06/02 17:02:26;;;;;;;9.48;4.30;;;;;;;27.19;46.09;97707.06;10327964;28;20147;-62
2022/06/02 17:07:31;;;;;;;;;;;;;;;27.04;46.28;97693.94;10334490;28;20068;-62
2022/06/02 17:12:46;;;;;;;8.05;3.53;;;;;;;26.62;46.26;97691.38;10335288;28;20375;-62
2022/06/02 17:18:10;;;;;;;6.28;3.60;;;;;;;26.50;46.45;97709.03;10332441;28;20137;-62
2022/06/02 17:23:56;;;;;;;8.60;3.97;;;;;;;26.19;46.49;97709.34;10327313;28;20456;-62
2022/06/02 17:29:37;;;;;;;8.88;4.35;;;;;;;26.00;46.89;97715.00;10333279;28;20095;-62
2022/06/02 17:35:18;;;;;;;11.93;4.68;;;;;;;25.80;48.45;97721.56;10350933;28;20473;-62
2022/06/02 17:40:46;;;;;;;8.23;4.88;;;;;;;25.56;50.83;97718.66;10341259;28;20060;-62
2022/06/02 17:46:15;;;;;;;13.50;6.07;;;;;;;25.19;53.36;97703.16;10325467;28;20066;-62
2022/06/02 17:51:48;;;;;;;9.63;5.22;;;;;;;25.02;54.76;97716.63;10333285;28;20069;-62
2022/06/02 17:56:56;;;;;;;8.73;5.65;;;;;;;24.73;56.40;97721.84;10317791;28;20063;-63
2022/06/02 18:02:07;;;;;;;12.45;5.65;;;;;;;24.34;56.84;97720.53;10334953;28;20057;-62
2022/06/02 18:07:45;;;;;;;11.18;5.40;;;;;;;24.14;57.61;97734.03;10333032;28;20075;-62
2022/06/02 18:12:58;;;;;;;10.75;5.40;;;;;;;23.88;58.13;97746.09;10292255;28;20557;-62
2022/06/02 18:18:34;;;;;;;10.35;5.00;;;;;;;23.62;60.18;97746.56;10317791;28;20073;-62
2022/06/02 18:24:09;;;;;;;11.77;5.65;;;;;;;23.28;61.62;97743.97;10336159;28;20057;-62
2022/06/02 18:29:42;;;;;;;8.88;5.35;;;;;;;23.09;62.88;97750.25;10335917;28;20061;-62
2022/06/02 18:34:49;;;;;;;10.73;5.40;;;;;;;22.88;63.87;97756.63;10336177;28;20069;-62
2022/06/02 18:39:54;;;;;;;8.85;5.57;;;;;;;22.63;64.01;97767.56;10336032;28;20072;-62
2022/06/02 18:45:23;;;;;;;9.23;4.88;;;;;;;22.31;64.34;97757.63;10334107;28;20067;-62
2022/06/02 18:50:45;;;;;;;9.77;5.25;;;;;;;22.09;64.36;97773.66;10335556;28;20680;-62
2022/06/02 18:56:05;;;;;;;8.82;4.50;;;;;;;21.96;64.35;97796.25;10335231;28;20100;-62
2022/06/02 19:01:25;;;;;;;9.32;4.97;;;;;;;21.71;64.22;97791.25;10333425;28;20060;-62
2022/06/02 19:17:40;;;;;;;13.18;5.57;;;;;;;21.16;67.97;97791.88;10333634;28;20077;-62
2022/06/02 19:23:08;;;;;;;10.13;5.40;;;;;;;20.93;68.28;97782.31;10333804;28;20061;-62
2022/06/02 19:28:25;;;;;;;12.05;5.45;;;;;;;20.85;69.37;97802.88;10321713;28;20852;-62
2022/06/02 19:33:33;;;;;;;14.73;6.32;;;;;;;20.67;71.54;97810.63;10333833;28;20065;-62
2022/06/02 19:38:57;;;;;;;13.48;6.50;;;;;;;20.60;72.03;97801.25;10333843;28;20075;-62
2022/06/02 19:44:11;;;;;;;13.18;6.57;;;;;;;20.47;73.72;97818.50;10333566;28;20064;-62
2022/06/02 19:49:10;;;;;;;16.85;7.85;;;;;;;20.46;73.75;97814.97;10332911;28;20510;-62
2022/06/02 19:54:18;;;;;;;19.25;8.65;;;;;;;20.41;73.32;97819.59;10334217;28;20032;-62
2022/06/02 19:59:23;;;;;;;10.70;6.03;;;;;;;20.38;72.19;97824.97;10332357;28;20880;-62
2022/06/02 20:04:30;;;;;;;12.15;6.20;;;;;;;20.32;71.67;97817.28;10333402;28;20049;-62
2022/06/02 20:09:36;;;;;;;9.75;5.45;;;;;;;20.23;71.65;97822.91;10332340;28;20072;-62
2022/06/02 20:14:40;;;;;;;11.65;5.03;;;;;;;20.14;71.03;97837.31;10331378;28;20069;-62
2022/06/02 20:19:45;;;;;;;9.80;4.97;;;;;;;20.07;70.64;97836.69;10331758;28;20084;-62
2022/06/02 20:24:54;;;;;;;11.88;5.00;;;;;;;19.95;70.29;97839.75;10333606;28;20067;-62
2022/06/02 20:30:02;;;;;;;11.68;6.05;;;;;;;19.87;70.18;97839.19;10330792;28;20076;-63
2022/06/02 20:35:11;;;;;;;10.45;5.10;;;;;;;19.81;69.88;97840.31;10331446;28;20092;-62
2022/06/02 20:40:15;;;;;;;10.13;5.05;;;;;;;19.73;70.00;97842.34;10339097;28;20534;-62
2022/06/02 20:45:31;;;;;;;9.57;5.13;;;;;;;19.68;69.98;97846.06;10340546;28;20065;-62
2022/06/02 20:50:56;;;;;;;8.18;4.82;;;;;;;19.64;69.72;97855.84;10340246;28;20069;-62
2022/06/02 20:56:25;;;;;;;9.50;4.57;;;;;;;19.55;69.81;97862.25;10340593;28;20068;-62
2022/06/02 21:01:58;;;;;;;9.57;4.60;;;;;;;19.52;70.52;97859.72;10299936;28;20085;-62
2022/06/02 21:07:12;;;;;;;10.73;5.30;;;;;;;19.50;71.17;97855.44;10293968;28;20076;-62
2022/06/02 21:12:36;;;;;;;10.05;5.65;;;;;;;19.49;71.70;97851.97;10339447;28;20068;-62
2022/06/02 21:17:51;;;;;;;8.88;5.07;;;;;;;19.40;72.19;97833.84;10338919;28;20073;-62
2022/06/02 21:22:56;;;;;;;10.18;6.03;;;;;;;19.37;73.18;97848.00;10340226;28;20499;-62
2022/06/02 21:28:17;;;;;;;10.15;6.25;;;;;;;19.47;73.47;97856.41;10338290;28;20061;-62
2022/06/02 21:33:33;;;;;;;13.82;6.88;;;;;;;19.26;77.05;97858.00;10338401;28;20085;-62
2022/06/02 21:38:36;;;;;;;10.13;5.93;;;;;;;19.01;79.24;97852.72;10338674;28;20064;-62
2022/06/02 21:43:52;;;;;;;11.68;6.32;;;;;;;18.81;80.26;97859.50;10338834;28;20061;-62
2022/06/02 21:49:19;;;;;;;14.50;7.00;;;;;;;18.74;80.92;97868.50;10336967;28;20563;-62
2022/06/02 21:54:25;;;;;;;14.85;6.53;;;;;;;18.48;82.22;97852.63;10338927;28;20072;-62
2022/06/02 21:59:37;;;;;;;17.00;7.20;;;;;;;18.36;83.56;97882.78;10336846;28;20068;-62
2022/06/02 22:04:42;;;;;;;11.40;6.82;;;;;;;18.29;83.66;97878.63;10338362;28;20072;-62
2022/06/02 22:09:51;;;;;;;13.90;6.88;;;;;;;17.96;83.28;97813.06;10337180;28;20068;-62
2022/06/02 22:15:17;;;;;;;12.13;7.40;;;;;;;18.34;82.74;97874.13;10336576;28;20072;-62
2022/06/02 22:20:33;;;;;;;10.85;6.50;;;;;;;18.34;82.76;97882.00;10331983;28;20072;-62
2022/06/02 22:25:43;;;;;;;11.68;7.35;;;;;;;18.31;83.05;97884.69;10327517;28;20798;-62
2022/06/02 22:31:04;;;;;;;9.88;6.00;;;;;;;18.20;83.04;97890.28;10300615;28;20448;-62
2022/06/02 22:36:47;;;;;;;10.93;7.10;;;;;;;18.14;83.35;97886.06;10337172;28;20075;-62
2022/06/02 22:42:00;;;;;;;14.23;7.00;;;;;;;18.03;84.29;97882.88;10336300;28;20179;-62
2022/06/02 22:47:27;;;;;;;11.63;6.95;;;;;;;17.95;85.04;97879.63;10334417;28;20067;-62
2022/06/02 22:52:45;;;;;;;14.15;6.88;;;;;;;17.94;84.90;97884.03;10337005;28;20072;-62
2022/06/02 22:58:23;;;;;;;13.55;7.30;;;;;;;17.81;85.15;97877.38;10335396;28;20932;-62
2022/06/02 23:03:46;;;;;;;10.02;7.43;;;;;;;17.83;85.56;97900.97;10335657;28;20061;-62
2022/06/02 23:09:04;;;;;;;16.63;7.90;;;;;;;17.73;86.40;97898.56;10335069;28;20069;-62
2022/06/02 23:14:17;;;;;;;10.32;6.50;;;;;;;17.68;86.96;97903.09;10335640;28;20061;-62
2022/06/02 23:19:55;;;;;;;12.55;7.10;;;;;;;17.70;87.18;97901.25;10333187;28;20081;-62
2022/06/02 23:25:00;;;;;;;9.52;7.28;;;;;;;17.70;87.08;97906.50;10297749;28;20072;-62
2022/06/02 23:30:03;;;;;;;12.55;7.43;;;;;;;17.38;88.53;97898.63;10335374;28;20061;-62
2022/06/02 23:35:24;;;;;;;8.52;6.80;;;;;;;17.40;89.33;97929.16;10333583;28;20064;-62
2022/06/02 23:40:35;;;;;;;11.00;6.75;;;;;;;17.26;90.42;97921.69;10332133;28;20081;-62
2022/06/02 23:46:05;;;;;;;13.38;7.88;;;;;;;17.17;90.02;97913.16;10331486;28;20065;-62
2022/06/02 23:51:27;;;;;;;13.18;7.95;;;;;;;17.25;89.73;97925.19;10326954;28;20088;-62
2022/06/02 23:56:41;;;;;;;10.93;8.10;;;;;;;17.21;89.83;97918.28;10333591;28;20072;-62
